Time;durP1;ratioP1;P1;durP2;ratioP2;P2;SDS_P1;SDS_P2;PMS_P1;PMS_P2;Temp;Humidity;BMP_temperature;BMP_pressure;BME280_temperature;BME280_humidity;BME280_pressure;Samples;Min_cycle;Max_cycle;Signal;HPM_P1;HPM_P2
2022/05/31 00:01:51;;;;;;;3.60;3.30;;;9.50;99.90;;;;;;5070593;28;20040;-52
2022/05/31 00:04:17;;;;;;;4.23;3.60;;;9.50;99.90;;;;;;5071780;28;20399;-51
2022/05/31 00:06:44;;;;;;;3.78;3.38;;;9.50;99.90;;;;;;5071319;28;20294;-52
2022/05/31 00:09:10;;;;;;;5.20;3.78;;;9.40;99.90;;;;;;5071306;28;20049;-52
2022/05/31 00:11:36;;;;;;;4.45;3.65;;;9.40;99.90;;;;;;5071506;28;20048;-52
2022/05/31 00:14:03;;;;;;;5.03;3.67;;;9.40;99.90;;;;;;5071582;28;20079;-52
2022/05/31 00:16:29;;;;;;;4.78;3.72;;;9.30;99.90;;;;;;5071375;28;20049;-51
2022/05/31 00:18:55;;;;;;;7.43;3.35;;;9.30;99.90;;;;;;5071491;28;20074;-52
2022/05/31 00:21:26;;;;;;;4.85;3.67;;;9.30;99.90;;;;;;5071427;28;20119;-52
2022/05/31 00:23:51;;;;;;;4.30;3.78;;;9.20;99.90;;;;;;5071657;28;20055;-50
2022/05/31 00:26:17;;;;;;;4.45;3.47;;;9.20;99.90;;;;;;5071641;28;20044;-46
2022/05/31 00:28:43;;;;;;;3.78;3.38;;;9.30;99.90;;;;;;5071232;28;20246;-51
2022/05/31 00:31:08;;;;;;;3.83;3.53;;;9.30;99.90;;;;;;5071525;28;20044;-52
2022/05/31 00:33:34;;;;;;;6.45;3.42;;;9.30;99.90;;;;;;5071110;28;20048;-52
2022/05/31 00:36:00;;;;;;;4.05;3.08;;;9.30;99.90;;;;;;5067775;28;20049;-52
2022/05/31 00:38:26;;;;;;;4.03;3.50;;;9.40;99.90;;;;;;5061147;28;20049;-52
2022/05/31 00:40:52;;;;;;;4.70;3.67;;;9.40;99.90;;;;;;5071413;28;20072;-51
2022/05/31 00:43:22;;;;;;;4.35;3.72;;;9.40;99.90;;;;;;5071183;28;20112;-52
2022/05/31 00:46:03;;;;;;;4.93;3.80;;;9.40;99.90;;;;;;5071163;28;20486;-53
2022/05/31 00:48:37;;;;;;;4.80;3.97;;;9.40;99.90;;;;;;5071659;28;20037;-51
2022/05/31 00:51:13;;;;;;;4.63;4.00;;;9.50;99.90;;;;;;5071234;28;20051;-50
2022/05/31 00:53:52;;;;;;;6.55;3.85;;;9.50;99.90;;;;;;5071368;28;20036;-51
2022/05/31 00:56:21;;;;;;;6.10;4.28;;;9.50;99.90;;;;;;5071082;28;20063;-52
2022/05/31 00:58:52;;;;;;;5.35;3.83;;;9.60;99.90;;;;;;5071207;28;20127;-48
2022/05/31 01:01:18;;;;;;;4.97;4.15;;;9.60;99.90;;;;;;5071150;28;20083;-51
2022/05/31 01:03:45;;;;;;;5.25;4.13;;;9.60;99.90;;;;;;5071158;28;20090;-52
2022/05/31 01:06:11;;;;;;;4.90;3.92;;;9.60;99.90;;;;;;5070978;28;20554;-50
2022/05/31 01:08:44;;;;;;;5.93;4.10;;;9.70;99.90;;;;;;5071078;28;20363;-51
2022/05/31 01:11:20;;;;;;;4.55;3.88;;;9.70;99.90;;;;;;5071039;28;20060;-49
2022/05/31 01:13:46;;;;;;;4.82;4.32;;;9.70;99.90;;;;;;5047598;28;20134;-51
2022/05/31 01:16:14;;;;;;;6.03;4.35;;;9.60;99.90;;;;;;5074784;28;20070;-52
2022/05/31 01:18:40;;;;;;;4.77;4.30;;;9.60;99.90;;;;;;5074826;28;20045;-52
2022/05/31 01:21:06;;;;;;;4.55;4.07;;;9.70;99.90;;;;;;5074557;28;20044;-52
2022/05/31 01:23:50;;;;;;;4.72;4.25;;;9.70;99.90;;;;;;5074380;28;20040;-51
2022/05/31 01:26:44;;;;;;;4.57;3.85;;;9.70;99.90;;;;;;5074657;28;20040;-52
2022/05/31 01:29:38;;;;;;;4.45;3.95;;;9.70;99.90;;;;;;5049132;28;20453;-48
2022/05/31 01:32:07;;;;;;;7.00;3.97;;;9.70;99.90;;;;;;5071774;28;20044;-52
2022/05/31 01:34:59;;;;;;;4.00;3.70;;;9.70;99.90;;;;;;5074625;28;20038;-50
2022/05/31 01:37:38;;;;;;;5.70;3.95;;;9.70;99.90;;;;;;5059875;28;20055;-52
2022/05/31 01:40:10;;;;;;;4.90;4.33;;;9.80;99.90;;;;;;5074359;28;20056;-51
2022/05/31 01:42:45;;;;;;;4.82;3.97;;;9.70;99.90;;;;;;5056123;28;20048;-51
2022/05/31 01:45:19;;;;;;;5.07;3.65;;;9.80;99.90;;;;;;5074113;28;20123;-50
2022/05/31 01:47:44;;;;;;;4.53;4.10;;;9.70;99.90;;;;;;5074229;28;20055;-51
2022/05/31 01:50:14;;;;;;;6.95;4.45;;;9.70;99.90;;;;;;5074541;28;20056;-51
2022/05/31 01:52:40;;;;;;;7.63;3.70;;;9.80;99.90;;;;;;5073859;28;20041;-50
2022/05/31 01:55:08;;;;;;;4.25;3.85;;;9.80;99.90;;;;;;5074178;28;20044;-52
2022/05/31 01:57:35;;;;;;;4.17;3.77;;;9.80;99.90;;;;;;5056163;28;20406;-51
2022/05/31 02:00:11;;;;;;;3.97;3.50;;;9.80;99.90;;;;;;5073616;28;20379;-52
2022/05/31 02:02:37;;;;;;;6.40;4.30;;;9.80;99.90;;;;;;5055987;28;20402;-51
2022/05/31 02:05:03;;;;;;;7.85;4.30;;;9.90;99.90;;;;;;5064496;28;20053;-52
2022/05/31 02:07:30;;;;;;;4.40;4.00;;;9.80;99.90;;;;;;5053492;28;20041;-51
2022/05/31 02:09:57;;;;;;;8.43;4.40;;;9.80;99.90;;;;;;5061178;28;20041;-52
2022/05/31 02:12:25;;;;;;;4.97;4.40;;;9.80;99.90;;;;;;5073836;28;20108;-51
2022/05/31 02:14:51;;;;;;;5.00;4.37;;;9.80;99.90;;;;;;5073675;28;20047;-50
2022/05/31 02:17:17;;;;;;;6.47;4.65;;;9.80;99.90;;;;;;5073519;28;20271;-52
2022/05/31 02:19:43;;;;;;;4.45;4.05;;;9.70;99.90;;;;;;5072996;28;20037;-52
2022/05/31 02:22:14;;;;;;;4.55;4.10;;;9.80;99.90;;;;;;5073386;28;20040;-51
2022/05/31 02:24:40;;;;;;;8.43;5.03;;;9.80;99.90;;;;;;5072530;28;20044;-49
2022/05/31 02:27:08;;;;;;;6.55;4.25;;;9.90;99.90;;;;;;5073336;28;20082;-52
2022/05/31 02:29:36;;;;;;;5.40;4.25;;;9.80;99.90;;;;;;5070862;28;20510;-51
2022/05/31 02:32:06;;;;;;;6.10;4.22;;;9.70;99.90;;;;;;5073205;28;20071;-52
2022/05/31 02:34:37;;;;;;;5.25;4.78;;;9.80;99.90;;;;;;5072853;28;20052;-52
2022/05/31 02:37:03;;;;;;;6.70;4.90;;;9.70;99.90;;;;;;5073557;28;20041;-48
2022/05/31 02:39:29;;;;;;;7.03;5.15;;;9.70;99.90;;;;;;5073264;28;20040;-52
2022/05/31 02:41:56;;;;;;;6.22;4.88;;;9.80;99.90;;;;;;5073294;28;20048;-50
2022/05/31 02:44:23;;;;;;;5.03;4.53;;;9.80;99.90;;;;;;5072974;28;20503;-51
2022/05/31 02:46:48;;;;;;;6.32;4.53;;;9.80;99.90;;;;;;5072674;28;20048;-51
2022/05/31 02:49:15;;;;;;;4.95;4.45;;;9.70;99.90;;;;;;5072655;28;20032;-51
2022/05/31 02:51:43;;;;;;;6.18;4.60;;;9.80;99.90;;;;;;5072920;28;20470;-50
2022/05/31 02:54:11;;;;;;;5.85;4.53;;;9.70;99.90;;;;;;5072471;28;20402;-50
2022/05/31 02:56:36;;;;;;;6.35;4.40;;;9.70;99.90;;;;;;5072805;28;20367;-50
2022/05/31 02:59:02;;;;;;;5.03;4.20;;;9.70;99.90;;;;;;5072557;28;20049;-50
2022/05/31 03:01:31;;;;;;;4.78;4.38;;;9.70;99.90;;;;;;5072338;28;20133;-51
2022/05/31 03:03:57;;;;;;;4.50;4.07;;;9.80;99.90;;;;;;5054569;28;20044;-51
2022/05/31 03:06:23;;;;;;;6.70;4.45;;;9.70;99.90;;;;;;5072605;28;20291;-51
2022/05/31 03:08:50;;;;;;;4.55;4.15;;;9.80;99.90;;;;;;5072340;28;20045;-50
2022/05/31 03:11:47;;;;;;;7.15;4.20;;;9.70;99.90;;;;;;5072180;28;20048;-52
2022/05/31 03:14:20;;;;;;;5.07;3.80;;;9.80;99.90;;;;;;5072226;28;20423;-50
2022/05/31 03:16:51;;;;;;;5.40;4.15;;;9.70;99.90;;;;;;5072389;28;20402;-50
2022/05/31 03:19:26;;;;;;;4.30;3.90;;;9.70;99.90;;;;;;5072232;28;20072;-50
2022/05/31 03:21:57;;;;;;;5.63;4.22;;;9.80;99.90;;;;;;5072036;28;20123;-52
2022/05/31 03:24:28;;;;;;;4.72;4.30;;;9.70;99.90;;;;;;5072041;28;20111;-47
2022/05/31 03:26:57;;;;;;;4.60;4.10;;;9.70;99.90;;;;;;5053864;28;20106;-52
2022/05/31 03:29:23;;;;;;;4.40;3.80;;;9.70;99.90;;;;;;5072071;28;20514;-50
2022/05/31 03:31:48;;;;;;;4.32;3.83;;;9.70;99.90;;;;;;5072057;28;20044;-52
2022/05/31 03:34:14;;;;;;;4.82;4.35;;;9.70;99.90;;;;;;5071896;28;20453;-51
2022/05/31 03:36:40;;;;;;;5.07;4.13;;;9.70;99.90;;;;;;5071685;28;20084;-51
2022/05/31 03:39:06;;;;;;;7.80;4.47;;;9.70;99.90;;;;;;5071854;28;20045;-52
2022/05/31 03:41:35;;;;;;;5.65;4.18;;;9.70;99.90;;;;;;5072132;28;20398;-52
2022/05/31 03:44:01;;;;;;;;;;;9.70;99.90;;;;;;5072343;28;20040;-51
2022/05/31 03:46:27;;;;;;;4.63;4.15;;;9.70;99.90;;;;;;5053883;28;19963;-51
2022/05/31 03:48:53;;;;;;;5.57;5.07;;;9.70;99.90;;;;;;5071572;28;20123;-50
2022/05/31 03:51:19;;;;;;;5.07;4.57;;;9.70;99.90;;;;;;5071669;28;20084;-50
2022/05/31 03:53:44;;;;;;;5.53;4.28;;;9.70;99.90;;;;;;5071603;28;20507;-51
2022/05/31 03:56:12;;;;;;;5.32;4.05;;;9.70;99.90;;;;;;5072099;28;20040;-52
2022/05/31 03:58:39;;;;;;;4.45;4.05;;;9.80;99.90;;;;;;5072140;28;20152;-51
2022/05/31 04:01:04;;;;;;;4.55;4.15;;;9.70;99.90;;;;;;5071826;28;20052;-52
2022/05/31 04:03:30;;;;;;;4.97;4.50;;;9.70;99.90;;;;;;5071530;28;20051;-52
2022/05/31 04:05:56;;;;;;;6.13;4.65;;;9.80;99.90;;;;;;5071794;28;20046;-51
2022/05/31 04:08:22;;;;;;;6.88;5.07;;;9.80;99.90;;;;;;5071445;28;20446;-51
2022/05/31 04:10:48;;;;;;;5.45;4.88;;;9.70;99.90;;;;;;5071281;28;20570;-52
2022/05/31 04:13:16;;;;;;;7.20;4.60;;;9.80;99.90;;;;;;5071489;28;20127;-52
2022/05/31 04:15:42;;;;;;;6.55;5.03;;;9.80;99.90;;;;;;5053801;28;20101;-52
2022/05/31 04:18:11;;;;;;;5.43;4.90;;;9.80;99.90;;;;;;5071320;28;20547;-49
2022/05/31 04:20:37;;;;;;;6.55;4.68;;;9.80;99.90;;;;;;5071722;28;20053;-52
2022/05/31 04:25:48;;;;;;;7.82;4.95;;;9.80;99.90;;;;;;5071361;28;20380;-52
2022/05/31 04:28:15;;;;;;;5.10;4.60;;;9.90;99.90;;;;;;5070971;28;20123;-52
2022/05/31 04:30:44;;;;;;;7.30;4.78;;;9.90;99.90;;;;;;5071312;28;20081;-52
2022/05/31 04:33:10;;;;;;;8.68;4.35;;;10.00;99.90;;;;;;5071176;28;20045;-48
2022/05/31 04:35:36;;;;;;;7.53;4.90;;;10.00;99.90;;;;;;5071352;28;20451;-51
2022/05/31 04:38:02;;;;;;;7.78;4.60;;;10.00;99.90;;;;;;5071454;28;20128;-51
2022/05/31 04:40:27;;;;;;;7.63;5.03;;;10.00;99.90;;;;;;5070880;28;20082;-50
2022/05/31 04:42:53;;;;;;;5.82;4.57;;;10.10;99.90;;;;;;5053135;28;20080;-52
2022/05/31 04:45:19;;;;;;;6.43;5.03;;;10.10;99.90;;;;;;5071124;28;20076;-52
2022/05/31 04:47:45;;;;;;;7.25;5.10;;;10.10;99.90;;;;;;5073500;28;20083;-52
2022/05/31 04:50:10;;;;;;;7.18;5.18;;;10.20;99.90;;;;;;5075324;28;20052;-51
2022/05/31 04:52:36;;;;;;;6.57;5.28;;;10.10;99.90;;;;;;5075038;28;20051;-52
2022/05/31 04:55:03;;;;;;;6.35;5.18;;;10.10;99.90;;;;;;5074940;28;20067;-52
2022/05/31 04:57:28;;;;;;;5.50;4.90;;;10.10;99.90;;;;;;5074909;28;20037;-52
2022/05/31 04:59:54;;;;;;;5.43;4.93;;;10.20;99.90;;;;;;5074890;28;20051;-51
2022/05/31 05:02:20;;;;;;;6.95;4.97;;;10.20;99.90;;;;;;5075091;28;20147;-52
2022/05/31 05:04:45;;;;;;;9.80;5.50;;;10.30;99.90;;;;;;5074746;28;20119;-51
2022/05/31 05:07:11;;;;;;;9.45;5.30;;;10.30;99.90;;;;;;5074895;28;20044;-51
2022/05/31 05:09:36;;;;;;;7.15;5.70;;;10.40;99.90;;;;;;5074728;28;20049;-50
2022/05/31 05:12:02;;;;;;;7.82;6.13;;;10.30;99.90;;;;;;5074768;28;20052;-52
2022/05/31 05:14:30;;;;;;;6.38;5.20;;;10.40;99.90;;;;;;5074374;28;20601;-52
2022/05/31 05:16:56;;;;;;;9.85;6.38;;;10.40;99.90;;;;;;5074460;28;20041;-51
2022/05/31 05:19:21;;;;;;;7.38;5.88;;;10.40;99.90;;;;;;5074242;28;20051;-52
2022/05/31 05:21:47;;;;;;;7.88;6.00;;;10.50;99.90;;;;;;5074141;28;20048;-50
2022/05/31 05:24:13;;;;;;;6.85;6.15;;;10.50;99.90;;;;;;5074419;28;20102;-50
2022/05/31 05:26:38;;;;;;;10.40;6.25;;;10.50;99.90;;;;;;5074310;28;20116;-47
2022/05/31 05:31:52;;;;;;;13.57;6.50;;;10.60;99.90;;;;;;5073600;28;20490;-51
2022/05/31 05:34:18;;;;;;;9.63;6.20;;;10.70;99.90;;;;;;5074474;28;20119;-52
2022/05/31 05:36:45;;;;;;;13.10;6.97;;;10.70;99.90;;;;;;5073810;28;20179;-51
2022/05/31 05:39:11;;;;;;;7.68;6.18;;;10.70;99.90;;;;;;5074478;28;20052;-51
2022/05/31 05:41:40;;;;;;;9.18;6.50;;;10.70;99.90;;;;;;5073910;28;20056;-51
2022/05/31 05:44:06;;;;;;;13.07;6.65;;;10.70;99.90;;;;;;5074350;28;20044;-52
2022/05/31 05:46:32;;;;;;;8.70;5.82;;;10.70;99.90;;;;;;5074106;28;20123;-52
2022/05/31 05:48:58;;;;;;;10.10;6.38;;;10.70;99.90;;;;;;5073776;28;20040;-52
2022/05/31 05:51:31;;;;;;;8.43;6.18;;;10.80;99.90;;;;;;5073803;28;20106;-52
2022/05/31 05:53:57;;;;;;;8.00;6.10;;;10.80;99.90;;;;;;5073123;28;20056;-51
2022/05/31 05:56:24;;;;;;;8.00;6.03;;;10.90;99.90;;;;;;5074069;28;20051;-52
2022/05/31 05:58:50;;;;;;;9.95;6.32;;;10.90;99.90;;;;;;5072540;28;20821;-52
2022/05/31 06:01:23;;;;;;;10.75;6.10;;;10.90;99.90;;;;;;5074111;28;20047;-51
2022/05/31 06:03:56;;;;;;;10.15;6.05;;;10.90;99.90;;;;;;5074019;28;20045;-52
2022/05/31 06:06:23;;;;;;;6.72;6.03;;;10.90;99.90;;;;;;5073996;28;20060;-51
2022/05/31 06:09:08;;;;;;;6.55;5.80;;;10.90;99.90;;;;;;5055930;28;20060;-51
2022/05/31 06:11:45;;;;;;;7.68;5.50;;;11.00;99.90;;;;;;5073647;28;20079;-52
2022/05/31 06:14:15;;;;;;;10.23;6.35;;;11.10;99.90;;;;;;5073775;28;20407;-51
2022/05/31 06:16:46;;;;;;;9.30;5.60;;;11.10;99.90;;;;;;5073877;28;20127;-52
2022/05/31 06:19:22;;;;;;;7.07;5.45;;;11.20;99.90;;;;;;5073500;28;20044;-51
2022/05/31 06:21:50;;;;;;;7.15;5.03;;;11.20;99.90;;;;;;5061176;28;20048;-52
2022/05/31 06:24:17;;;;;;;6.10;4.93;;;11.30;99.90;;;;;;5073847;28;20090;-50
2022/05/31 06:26:44;;;;;;;7.07;4.97;;;11.40;99.90;;;;;;5073349;28;20054;-50
2022/05/31 06:29:09;;;;;;;7.38;5.85;;;11.40;99.90;;;;;;5073560;28;20048;-53
2022/05/31 06:31:35;;;;;;;7.68;5.70;;;11.60;99.90;;;;;;5073195;28;20451;-52
2022/05/31 06:34:01;;;;;;;5.57;4.82;;;11.60;99.90;;;;;;5073738;28;20049;-51
2022/05/31 06:36:26;;;;;;;6.13;4.35;;;11.70;99.90;;;;;;5073515;28;20123;-52
2022/05/31 06:38:52;;;;;;;10.40;4.95;;;11.70;99.90;;;;;;5073262;28;20040;-52
2022/05/31 06:41:18;;;;;;;8.18;5.45;;;11.80;99.90;;;;;;5073291;28;20044;-52
2022/05/31 06:43:43;;;;;;;5.30;4.80;;;11.90;99.90;;;;;;5073149;28;20052;-52
2022/05/31 06:46:10;;;;;;;6.75;5.03;;;11.90;99.90;;;;;;5073167;28;20082;-52
2022/05/31 06:48:36;;;;;;;9.27;5.40;;;12.00;99.90;;;;;;5073094;28;20044;-52
2022/05/31 06:51:14;;;;;;;5.70;4.65;;;12.10;99.90;;;;;;5073201;28;20502;-52
2022/05/31 06:56:49;;;;;;;6.97;4.43;;;12.20;99.90;;;;;;5011034;28;20449;-53
2022/05/31 06:59:15;;;;;;;6.13;4.30;;;12.30;99.90;;;;;;5011070;28;20061;-53
2022/05/31 07:01:41;;;;;;;8.50;4.68;;;12.30;99.90;;;;;;5011269;28;20098;-52
2022/05/31 07:04:06;;;;;;;5.22;4.57;;;12.40;99.90;;;;;;5015891;28;20482;-52
2022/05/31 07:06:33;;;;;;;6.55;4.38;;;12.40;99.90;;;;;;5027844;28;20041;-53
2022/05/31 07:08:59;;;;;;;8.15;4.20;;;12.60;99.90;;;;;;5023156;28;20038;-52
2022/05/31 07:11:26;;;;;;;6.18;4.25;;;12.60;99.90;;;;;;5021401;28;20050;-51
2022/05/31 07:13:52;;;;;;;4.53;4.10;;;12.70;99.90;;;;;;5018535;28;20045;-51
2022/05/31 07:16:17;;;;;;;5.88;4.40;;;12.80;99.90;;;;;;5010515;28;20042;-52
2022/05/31 07:18:43;;;;;;;7.38;4.03;;;12.70;99.90;;;;;;5010654;28;20053;-53
2022/05/31 07:21:09;;;;;;;6.25;4.18;;;12.80;99.90;;;;;;5010718;28;20049;-53
2022/05/31 07:23:35;;;;;;;6.38;3.97;;;12.90;99.90;;;;;;5010577;28;20487;-52
2022/05/31 07:26:03;;;;;;;6.57;4.35;;;13.00;99.90;;;;;;5010554;28;20043;-53
2022/05/31 07:28:29;;;;;;;4.97;4.55;;;13.10;99.90;;;;;;5016214;28;20121;-52
2022/05/31 07:30:56;;;;;;;7.75;4.55;;;13.20;99.90;;;;;;5053066;28;20132;-53
2022/05/31 07:33:22;;;;;;;5.18;4.50;;;13.30;99.90;;;;;;5071353;28;20044;-51
2022/05/31 07:35:49;;;;;;;6.63;3.95;;;13.50;99.90;;;;;;5071571;28;20053;-53
2022/05/31 07:38:16;;;;;;;4.53;3.63;;;13.60;99.90;;;;;;5071863;28;20048;-53
2022/05/31 07:40:43;;;;;;;6.07;4.45;;;13.70;99.90;;;;;;5070956;28;20498;-53
2022/05/31 07:43:10;;;;;;;7.20;4.50;;;13.70;99.90;;;;;;5071259;28;20036;-53
2022/05/31 07:45:36;;;;;;;4.35;3.95;;;13.80;99.90;;;;;;5070417;28;20053;-52
2022/05/31 07:48:02;;;;;;;5.75;3.92;;;13.90;99.90;;;;;;5071153;28;20040;-53
2022/05/31 07:50:28;;;;;;;7.25;3.97;;;14.10;99.90;;;;;;5073371;28;20048;-54
2022/05/31 07:52:53;;;;;;;3.83;3.42;;;14.40;99.90;;;;;;5071317;28;20056;-55
2022/05/31 07:55:19;;;;;;;9.73;3.85;;;14.60;99.90;;;;;;5070731;28;20044;-55
2022/05/31 08:00:31;;;;;;;6.32;3.03;;;14.80;99.90;;;;;;5071383;28;20056;-55
2022/05/31 08:02:57;;;;;;;7.45;3.53;;;14.70;99.90;;;;;;5071166;28;20044;-55
2022/05/31 08:05:22;;;;;;;5.30;3.70;;;15.10;99.90;;;;;;5071994;28;20782;-55
2022/05/31 08:07:49;;;;;;;5.57;3.53;;;15.30;99.90;;;;;;5070992;28;20479;-55
2022/05/31 08:10:17;;;;;;;4.72;3.63;;;15.40;99.90;;;;;;5071030;28;20495;-55
2022/05/31 08:12:43;;;;;;;4.28;3.45;;;15.60;99.90;;;;;;5069392;28;20091;-55
2022/05/31 08:15:10;;;;;;;3.85;3.35;;;15.90;99.90;;;;;;5077139;28;20040;-56
2022/05/31 08:17:36;;;;;;;6.88;3.83;;;16.00;99.90;;;;;;5076381;28;20490;-55
2022/05/31 08:20:04;;;;;;;6.18;3.22;;;16.30;99.90;;;;;;5074886;28;20056;-55
2022/05/31 08:22:30;;;;;;;4.05;3.20;;;16.50;99.90;;;;;;5075453;28;20036;-56
2022/05/31 08:24:55;;;;;;;4.53;2.97;;;16.40;99.90;;;;;;5073742;28;20475;-55
2022/05/31 08:27:21;;;;;;;4.10;3.60;;;16.50;99.90;;;;;;5075308;28;20143;-55
2022/05/31 08:29:46;;;;;;;9.35;3.58;;;16.40;99.90;;;;;;5071710;28;20045;-55
2022/05/31 08:32:12;;;;;;;5.38;3.38;;;16.60;99.90;;;;;;5074531;28;20056;-55
2022/05/31 08:34:38;;;;;;;7.55;3.40;;;16.60;99.90;;;;;;5074109;28;20040;-55
2022/05/31 08:37:04;;;;;;;5.65;3.70;;;16.60;99.90;;;;;;5074699;28;20142;-55
2022/05/31 08:39:29;;;;;;;4.88;3.53;;;16.50;99.90;;;;;;5075586;28;20040;-55
2022/05/31 08:42:03;;;;;;;4.57;3.22;;;16.80;99.90;;;;;;5075392;28;20453;-55
2022/05/31 08:44:49;;;;;;;5.43;3.25;;;16.70;99.90;;;;;;5075650;28;20052;-55
2022/05/31 08:47:24;;;;;;;7.90;3.28;;;16.80;99.90;;;;;;5013442;28;20117;-55
2022/05/31 08:53:09;;;;;;;5.13;3.65;;;16.80;99.90;;;;;;5010480;28;20046;-55
2022/05/31 08:58:58;;;;;;;;;;;17.10;99.90;;;;;;5012309;28;20049;-55
2022/05/31 09:01:29;;;;;;;5.18;3.13;;;17.00;99.90;;;;;;5012930;28;19936;-55
2022/05/31 09:03:59;;;;;;;4.43;3.22;;;17.10;99.90;;;;;;5000456;28;20051;-55
2022/05/31 09:06:30;;;;;;;4.65;2.97;;;17.40;99.90;;;;;;5009718;28;20101;-56
2022/05/31 09:09:16;;;;;;;5.55;2.78;;;17.50;99.90;;;;;;5022138;28;20042;-55
2022/05/31 09:11:59;;;;;;;5.22;2.60;;;17.70;99.90;;;;;;5027444;28;20061;-56
2022/05/31 09:14:36;;;;;;;4.10;2.20;;;18.10;99.90;;;;;;5030776;28;20511;-55
2022/05/31 09:17:45;;;;;;;2.85;2.33;;;18.40;99.90;;;;;;5026933;28;20045;-55
2022/05/31 09:20:41;;;;;;;3.42;2.70;;;18.60;99.90;;;;;;5027208;28;20046;-56
2022/05/31 09:23:08;;;;;;;5.80;2.38;;;18.60;99.90;;;;;;5019870;28;20081;-56
2022/05/31 09:25:41;;;;;;;4.63;2.40;;;18.70;99.90;;;;;;5072378;28;20063;-55
2022/05/31 09:28:42;;;;;;;3.90;2.30;;;18.80;99.90;;;;;;5074184;28;20041;-55
2022/05/31 09:31:37;;;;;;;3.63;2.17;;;19.20;99.90;;;;;;5072243;28;20111;-55
2022/05/31 09:34:32;;;;;;;4.05;2.50;;;18.80;99.90;;;;;;5004124;28;20093;-56
2022/05/31 09:37:14;;;;;;;4.63;2.08;;;18.50;99.90;;;;;;5001914;28;20096;-55
2022/05/31 09:40:20;;;;;;;6.82;2.70;;;18.50;99.90;;;;;;4996347;28;20108;-55
2022/05/31 09:42:53;;;;;;;2.58;2.30;;;18.70;99.90;;;;;;5012499;28;20108;-55
2022/05/31 09:45:21;;;;;;;4.40;2.90;;;18.90;99.90;;;;;;5011306;28;20077;-55
2022/05/31 09:47:48;;;;;;;5.40;2.83;;;18.90;99.90;;;;;;5005461;28;20531;-55
2022/05/31 09:50:24;;;;;;;3.67;2.53;;;18.90;99.90;;;;;;5008325;28;20084;-56
2022/05/31 09:52:56;;;;;;;4.25;2.53;;;19.00;99.90;;;;;;4988718;28;20623;-55
2022/05/31 09:58:18;;;;;;;3.90;2.63;;;18.60;99.90;;;;;;4999990;28;20459;-56
2022/05/31 10:01:00;;;;;;;4.43;2.40;;;18.40;99.90;;;;;;5008296;28;20058;-55
2022/05/31 10:03:40;;;;;;;5.43;2.90;;;17.90;99.90;;;;;;5009409;28;20040;-55
2022/05/31 10:06:20;;;;;;;7.35;3.05;;;17.80;99.90;;;;;;5006098;28;20074;-55
2022/05/31 10:08:48;;;;;;;2.53;1.73;;;17.70;99.90;;;;;;5007593;28;20037;-55
2022/05/31 10:11:22;;;;;;;6.47;2.42;;;17.90;99.90;;;;;;5058775;28;20067;-55
2022/05/31 10:14:14;;;;;;;4.75;2.80;;;17.70;99.90;;;;;;5073731;28;20103;-55
2022/05/31 10:16:40;;;;;;;4.55;2.60;;;17.60;99.90;;;;;;5072997;28;20048;-55
2022/05/31 10:19:10;;;;;;;4.53;2.50;;;17.60;99.90;;;;;;5073146;28;20040;-55
2022/05/31 10:21:43;;;;;;;3.28;2.28;;;17.50;99.90;;;;;;5073670;28;20052;-55
2022/05/31 10:24:29;;;;;;;7.57;2.28;;;17.40;99.90;;;;;;5073382;28;20505;-55
2022/05/31 10:27:18;;;;;;;5.45;2.38;;;17.40;99.90;;;;;;5073055;28;20054;-55
2022/05/31 10:30:08;;;;;;;5.93;2.83;;;17.30;99.90;;;;;;5073093;28;20068;-55
2022/05/31 10:32:47;;;;;;;5.82;2.70;;;17.30;99.90;;;;;;5072723;28;20157;-55
2022/05/31 10:35:16;;;;;;;5.53;2.53;;;17.20;99.90;;;;;;5073292;28;20044;-55
2022/05/31 10:37:57;;;;;;;4.28;2.80;;;17.20;99.90;;;;;;5073266;28;20040;-55
2022/05/31 10:40:30;;;;;;;4.20;2.90;;;17.10;99.90;;;;;;5072453;28;20064;-56
2022/05/31 10:43:03;;;;;;;5.50;2.67;;;17.10;99.90;;;;;;5073485;28;20048;-55
2022/05/31 10:45:31;;;;;;;4.95;2.60;;;17.20;99.90;;;;;;5072401;28;20051;-55
2022/05/31 10:47:58;;;;;;;3.35;2.47;;;17.30;99.90;;;;;;5073097;28;20059;-55
2022/05/31 10:50:54;;;;;;;3.97;2.05;;;17.20;99.90;;;;;;5072394;28;20048;-55
2022/05/31 10:53:42;;;;;;;7.28;2.40;;;17.10;99.90;;;;;;5064444;28;20044;-55
2022/05/31 10:56:16;;;;;;;5.05;2.22;;;17.10;99.90;;;;;;5072942;28;20055;-55
2022/05/31 10:58:57;;;;;;;3.72;2.45;;;17.30;99.90;;;;;;5072568;28;20123;-55
2022/05/31 11:01:30;;;;;;;4.97;2.47;;;17.40;99.90;;;;;;5072180;28;20049;-55
2022/05/31 11:04:14;;;;;;;3.70;2.20;;;17.50;99.90;;;;;;5072490;28;20068;-55
2022/05/31 11:06:58;;;;;;;4.97;2.92;;;17.50;99.90;;;;;;5073214;28;20450;-55
2022/05/31 11:12:34;;;;;;;6.10;2.75;;;17.80;99.90;;;;;;5072498;28;20040;-55
2022/05/31 11:15:14;;;;;;;7.75;2.97;;;17.80;99.90;;;;;;5072388;28;20045;-55
2022/05/31 11:18:00;;;;;;;5.97;2.00;;;17.90;99.90;;;;;;5072868;28;20426;-55
2022/05/31 11:20:30;;;;;;;10.50;2.58;;;17.90;99.90;;;;;;5071077;28;20048;-55
2022/05/31 11:23:05;;;;;;;3.10;2.13;;;18.10;99.90;;;;;;5071139;28;20094;-55
2022/05/31 11:25:39;;;;;;;4.35;2.58;;;17.90;99.90;;;;;;5072625;28;20055;-55
2022/05/31 11:28:24;;;;;;;5.95;2.45;;;18.10;99.90;;;;;;5072600;28;20048;-55
2022/05/31 11:31:11;;;;;;;5.72;2.60;;;18.20;99.90;;;;;;5064190;28;20063;-55
2022/05/31 11:34:15;;;;;;;4.18;2.20;;;18.40;99.90;;;;;;5068033;28;20075;-55
2022/05/31 11:37:25;;;;;;;4.95;2.80;;;18.60;99.90;;;;;;5009965;28;20042;-55
2022/05/31 11:40:08;;;;;;;4.10;2.33;;;18.60;99.90;;;;;;5009064;28;20042;-55
2022/05/31 11:42:55;;;;;;;4.60;2.70;;;18.70;99.90;;;;;;4992775;28;20062;-55
2022/05/31 11:45:55;;;;;;;3.83;2.03;;;18.90;99.90;;;;;;5005816;28;20448;-55
2022/05/31 11:48:36;;;;;;;4.43;2.38;;;19.10;98.90;;;;;;5009738;28;20042;-55
2022/05/31 11:51:20;;;;;;;6.95;3.10;;;19.30;99.90;;;;;;5008971;28;20623;-55
2022/05/31 11:54:13;;;;;;;5.15;2.50;;;19.40;98.80;;;;;;5003761;28;20205;-55
2022/05/31 11:56:58;;;;;;;5.30;2.75;;;19.80;99.90;;;;;;5009951;28;20141;-55
2022/05/31 11:59:31;;;;;;;5.18;3.03;;;20.10;99.60;;;;;;5010082;28;20050;-56
2022/05/31 12:02:04;;;;;;;5.00;2.67;;;20.20;97.80;;;;;;5009897;28;20113;-55
2022/05/31 12:04:59;;;;;;;4.82;2.45;;;20.40;98.40;;;;;;5009685;28;20561;-56
2022/05/31 12:07:36;;;;;;;5.97;2.30;;;20.60;97.30;;;;;;5005290;28;20034;-55
2022/05/31 12:10:09;;;;;;;3.53;2.35;;;20.50;96.70;;;;;;5022874;28;20080;-56
2022/05/31 12:12:36;;;;;;;4.78;2.20;;;20.60;97.20;;;;;;5069285;28;20131;-55
2022/05/31 12:15:10;;;;;;;8.27;3.15;;;20.40;98.30;;;;;;5070268;28;20045;-55
2022/05/31 12:17:59;;;;;;;4.18;2.10;;;20.20;98.00;;;;;;5070329;28;20543;-55
2022/05/31 12:20:38;;;;;;;4.17;2.37;;;20.10;97.10;;;;;;5071415;28;20080;-55
2022/05/31 12:23:06;;;;;;;6.53;2.28;;;19.80;97.90;;;;;;5070552;28;20279;-55
2022/05/31 12:25:39;;;;;;;4.97;2.17;;;19.70;98.60;;;;;;5070090;28;20111;-56
2022/05/31 12:28:24;;;;;;;5.25;2.40;;;19.50;98.90;;;;;;5070999;28;20036;-55
2022/05/31 12:31:23;;;;;;;6.03;2.70;;;19.00;97.00;;;;;;5071533;28;20435;-55
2022/05/31 12:33:49;;;;;;;3.00;2.05;;;18.90;98.60;;;;;;5070390;28;20492;-55
2022/05/31 12:36:20;;;;;;;4.53;2.10;;;18.70;98.70;;;;;;5071460;28;20131;-55
2022/05/31 12:39:04;;;;;;;3.78;1.65;;;18.60;99.20;;;;;;5071562;28;20040;-56
2022/05/31 12:41:31;;;;;;;2.20;1.80;;;18.50;99.90;;;;;;5072007;28;20045;-56
2022/05/31 12:43:59;;;;;;;2.90;1.90;;;18.20;97.90;;;;;;5052721;28;20083;-55
2022/05/31 12:46:37;;;;;;;3.38;1.90;;;18.10;99.60;;;;;;5071280;28;20036;-55
2022/05/31 12:49:19;;;;;;;3.67;2.05;;;18.10;99.40;;;;;;5069280;28;20037;-56
2022/05/31 12:54:56;;;;;;;3.22;2.13;;;17.90;99.60;;;;;;5071056;28;20053;-55
2022/05/31 13:00:33;;;;;;;2.60;1.77;;;17.80;98.10;;;;;;5072451;28;20045;-55
2022/05/31 13:03:05;;;;;;;9.40;2.03;;;17.80;99.90;;;;;;5068891;28;20048;-55
2022/05/31 13:05:56;;;;;;;4.07;1.67;;;17.80;99.90;;;;;;5071247;28;20041;-55
2022/05/31 13:09:00;;;;;;;3.80;2.65;;;17.90;99.90;;;;;;5070249;28;20047;-55
2022/05/31 13:20:14;;;;;;;5.93;2.60;;;17.80;99.90;;;;;;5074896;28;20105;-55
2022/05/31 13:22:46;;;;;;;2.85;2.05;;;17.80;99.90;;;;;;5076469;28;20071;-55
2022/05/31 13:25:28;;;;;;;4.45;2.30;;;17.90;99.90;;;;;;5071434;28;20040;-55
2022/05/31 13:27:57;;;;;;;5.75;2.40;;;17.90;99.60;;;;;;5071212;28;20048;-55
2022/05/31 13:30:27;;;;;;;4.90;2.08;;;17.80;99.90;;;;;;5073242;28;20041;-55
2022/05/31 13:32:53;;;;;;;5.93;2.50;;;18.00;99.90;;;;;;5073559;28;20114;-55
2022/05/31 13:35:24;;;;;;;5.22;2.25;;;17.90;99.70;;;;;;5073681;28;20044;-55
2022/05/31 13:38:05;;;;;;;4.93;2.78;;;17.90;99.90;;;;;;5073332;28;20090;-55
2022/05/31 13:40:41;;;;;;;5.18;2.80;;;17.80;99.80;;;;;;5072659;28;20102;-55
2022/05/31 13:43:23;;;;;;;9.13;2.45;;;17.80;99.50;;;;;;5073344;28;20047;-55
2022/05/31 13:45:52;;;;;;;4.28;2.30;;;17.70;99.90;;;;;;5072782;28;20040;-55
2022/05/31 13:48:23;;;;;;;6.38;3.15;;;17.60;99.90;;;;;;5073356;28;20044;-55
2022/05/31 13:50:59;;;;;;;6.35;2.67;;;17.50;99.90;;;;;;5073264;28;20051;-56
2022/05/31 13:53:32;;;;;;;4.85;3.15;;;17.60;99.40;;;;;;5073226;28;20044;-55